Time;durP1;ratioP1;P1;durP2;ratioP2;P2;SDS_P1;SDS_P2;PMS_P1;PMS_P2;Temp;Humidity;BMP_temperature;BMP_pressure;BME280_temperature;BME280_humidity;BME280_pressure;Samples;Min_cycle;Max_cycle;Signal;HPM_P1;HPM_P2
2022/07/03 00:00:22;;;;;;;8.55;4.37;;;;;;;12.05;100.00;101264.66;1697001;83;21019;-42
2022/07/03 00:02:48;;;;;;;5.22;3.65;;;;;;;12.03;100.00;101265.11;1695446;83;21059;-41
2022/07/03 00:05:17;;;;;;;4.67;4.28;;;;;;;12.06;100.00;101269.39;1707687;83;21008;-41
2022/07/03 00:07:44;;;;;;;4.80;4.33;;;;;;;12.05;100.00;101262.48;1704470;83;21023;-41
2022/07/03 00:10:13;;;;;;;5.50;4.08;;;;;;;12.06;100.00;101266.37;1708452;83;20956;-42
2022/07/03 00:12:40;;;;;;;8.30;4.40;;;;;;;12.04;100.00;101261.64;1701852;83;21015;-41
2022/07/03 00:15:08;;;;;;;5.42;4.60;;;;;;;12.05;100.00;101260.77;1700793;83;21000;-41
2022/07/03 00:17:34;;;;;;;4.35;4.05;;;;;;;12.25;100.00;101258.38;1679823;84;21075;-41
2022/07/03 00:20:02;;;;;;;8.43;4.30;;;;;;;12.32;100.00;101260.00;1705766;83;21110;-41
2022/07/03 00:22:30;;;;;;;4.45;3.87;;;;;;;12.35;100.00;101254.77;1673350;84;21096;-41
2022/07/03 00:25:06;;;;;;;7.72;4.12;;;;;;;12.35;100.00;101254.77;1703724;83;21494;-41
2022/07/03 00:27:33;;;;;;;5.33;4.08;;;;;;;12.32;100.00;101260.00;1714173;83;20991;-41
2022/07/03 00:30:03;;;;;;;10.13;3.83;;;;;;;12.27;100.00;101263.09;1701234;83;21000;-41
2022/07/03 00:32:29;;;;;;;12.25;3.92;;;;;;;12.19;100.00;101255.41;1701904;83;21556;-42
2022/07/03 00:34:56;;;;;;;6.17;3.67;;;;;;;12.14;100.00;101257.63;1705857;83;21132;-41
2022/07/03 00:37:24;;;;;;;7.03;4.08;;;;;;;12.11;100.00;101258.96;1697809;83;21542;-41
2022/07/03 00:39:50;;;;;;;3.80;3.22;;;;;;;12.17;100.00;101269.27;1700218;83;21044;-41
2022/07/03 00:42:18;;;;;;;8.80;3.50;;;;;;;12.21;100.00;101269.64;1699700;83;21556;-41
2022/07/03 00:44:48;;;;;;;9.18;4.05;;;;;;;12.24;100.00;101263.11;1711911;83;20955;-41
2022/07/03 00:47:18;;;;;;;4.85;3.67;;;;;;;12.27;100.00;101257.91;1713843;83;21179;-42
2022/07/03 00:49:57;;;;;;;5.72;3.67;;;;;;;12.25;100.00;101257.07;1706328;83;21063;-42
2022/07/03 00:52:24;;;;;;;10.05;3.85;;;;;;;12.19;100.00;101260.59;1704289;83;21740;-42
2022/07/03 00:54:54;;;;;;;5.25;3.85;;;;;;;12.13;100.00;101251.59;1703093;83;20995;-41
2022/07/03 00:57:22;;;;;;;5.80;3.98;;;;;;;12.11;100.00;101250.72;1709472;83;21039;-41
2022/07/03 00:59:49;;;;;;;4.85;3.92;;;;;;;12.10;100.00;101254.20;1705822;83;21158;-43
2022/07/03 01:02:37;;;;;;;8.15;3.90;;;;;;;12.09;100.00;101264.16;1701206;83;20960;-41
2022/07/03 01:05:42;;;;;;;9.10;3.92;;;;;;;12.07;100.00;101259.00;1711872;83;21004;-42
2022/07/03 01:08:29;;;;;;;6.17;3.85;;;;;;;12.07;100.00;101251.22;1732603;82;20960;-41
2022/07/03 01:11:23;;;;;;;7.03;3.80;;;;;;;12.02;100.00;101251.72;1716926;82;21496;-42
2022/07/03 01:14:15;;;;;;;4.08;3.67;;;;;;;11.92;100.00;101256.55;1723032;82;21270;-43
2022/07/03 01:16:54;;;;;;;3.85;3.45;;;;;;;11.77;100.00;101253.26;1702822;83;20988;-42
2022/07/03 01:19:43;;;;;;;7.70;3.58;;;;;;;11.61;100.00;101249.94;1723747;82;20980;-41
2022/07/03 01:22:31;;;;;;;3.47;3.27;;;;;;;11.50;100.00;101255.26;1711315;82;20993;-41
2022/07/03 01:25:10;;;;;;;5.78;3.50;;;;;;;11.36;100.00;101251.92;1734765;82;21007;-42
2022/07/03 01:28:03;;;;;;;7.80;3.67;;;;;;;11.28;100.00;101255.03;1739959;82;21247;-42
2022/07/03 01:30:35;;;;;;;6.05;3.98;;;;;;;11.21;100.00;101258.09;1715650;82;21043;-41
2022/07/03 01:33:06;;;;;;;8.63;5.47;;;;;;;11.16;100.00;101250.35;1714653;82;21509;-42
2022/07/03 01:35:40;;;;;;;6.30;3.83;;;;;;;11.24;100.00;101244.23;1712796;83;20991;-42
2022/07/03 01:38:10;;;;;;;7.67;4.00;;;;;;;11.27;100.00;101242.48;1696410;83;20942;-42
2022/07/03 01:40:40;;;;;;;5.25;3.90;;;;;;;11.18;100.00;101247.31;1713240;83;21435;-42
2022/07/03 01:43:12;;;;;;;4.17;3.62;;;;;;;11.10;100.00;101242.64;1714469;82;20999;-42
2022/07/03 01:45:47;;;;;;;3.80;3.50;;;;;;;11.05;100.00;101240.07;1711451;83;21046;-41
2022/07/03 01:48:14;;;;;;;3.87;3.47;;;;;;;10.97;100.00;101233.23;1682434;83;20976;-42
2022/07/03 01:50:42;;;;;;;6.33;3.47;;;;;;;10.88;100.00;101232.89;1716098;83;21505;-42
2022/07/03 01:53:11;;;;;;;3.70;3.40;;;;;;;10.82;100.00;101233.78;1707169;83;21269;-41
2022/07/03 01:55:40;;;;;;;6.42;4.22;;;;;;;10.76;100.00;101230.79;1708496;83;21006;-42
2022/07/03 01:58:06;;;;;;;8.40;3.60;;;;;;;10.71;100.00;101220.91;1719346;83;20947;-41
2022/07/03 02:00:42;;;;;;;5.25;3.65;;;;;;;10.67;100.00;101217.92;1710751;83;21808;-41
2022/07/03 02:03:09;;;;;;;5.03;3.80;;;;;;;10.66;100.00;101218.79;1705514;83;21341;-41
2022/07/03 02:05:43;;;;;;;8.28;3.55;;;;;;;10.66;100.00;101223.09;1702317;83;21829;-42
2022/07/03 02:08:41;;;;;;;11.25;4.35;;;;;;;10.64;100.00;101223.97;1717185;83;20991;-42
2022/07/03 02:11:19;;;;;;;13.68;4.17;;;;;;;10.62;100.00;101224.41;1704991;83;21018;-41
2022/07/03 02:14:15;;;;;;;7.65;4.40;;;;;;;10.58;100.00;101232.20;1710397;83;21617;-41
2022/07/03 02:16:56;;;;;;;8.85;4.45;;;;;;;10.58;100.00;101230.90;1700334;83;21003;-42
2022/07/03 02:19:49;;;;;;;71.57;6.65;;;;;;;10.59;100.00;101227.44;1705714;83;21064;-42
2022/07/03 02:22:17;;;;;;;7.03;3.77;;;;;;;10.60;100.00;101220.09;1696000;83;20995;-41
2022/07/03 02:24:45;;;;;;;8.33;4.22;;;;;;;10.63;100.00;101213.64;1694047;83;20984;-41
2022/07/03 02:27:23;;;;;;;10.63;4.70;;;;;;;10.65;100.00;101219.66;1713777;83;20956;-42
2022/07/03 02:30:05;;;;;;;7.17;4.03;;;;;;;10.68;100.00;101229.12;1704582;83;20944;-42
2022/07/03 02:32:36;;;;;;;13.15;5.17;;;;;;;10.72;100.00;101225.63;1699990;83;22127;-42
2022/07/03 02:35:07;;;;;;;20.00;5.03;;;;;;;10.77;100.00;101221.31;1681342;83;21075;-42
2022/07/03 02:37:50;;;;;;;9.93;5.17;;;;;;;10.84;100.00;101221.68;1705631;83;20991;-42
2022/07/03 02:40:34;;;;;;;18.90;5.10;;;;;;;10.90;100.00;101224.22;1704577;83;20983;-42
2022/07/03 02:43:23;;;;;;;8.75;4.83;;;;;;;10.99;100.00;101227.59;1714024;83;21542;-41
2022/07/03 02:46:48;;;;;;;11.83;5.72;;;;;;;11.17;100.00;101230.05;1697578;83;21250;-43
2022/07/03 02:48:36;;;;;;;9.45;5.80;;;;;;;11.34;100.00;101229.89;1707970;83;20995;-41
2022/07/03 02:51:07;;;;;;;12.50;5.28;;;;;;;11.50;100.00;101229.75;1705593;83;21028;-41
2022/07/03 02:53:46;;;;;;;12.45;5.87;;;;;;;11.64;100.00;101235.67;1670818;83;20953;-41
2022/07/03 02:56:21;;;;;;;13.35;5.55;;;;;;;11.83;100.00;101230.27;1710138;83;21440;-42
2022/07/03 02:59:14;;;;;;;9.83;5.65;;;;;;;12.06;100.00;101226.57;1710473;83;22085;-42
2022/07/03 03:01:51;;;;;;;11.83;6.20;;;;;;;12.27;100.00;101231.08;1680016;83;21154;-42
2022/07/03 03:04:22;;;;;;;6.60;5.92;;;;;;;12.44;100.00;101226.95;1703369;83;21046;-42
2022/07/03 03:06:59;;;;;;;6.60;5.85;;;;;;;12.55;100.00;101231.56;1695887;83;20983;-42
2022/07/03 03:09:29;;;;;;;14.53;6.03;;;;;;;12.63;100.00;101234.91;1707955;83;20940;-42
2022/07/03 03:12:00;;;;;;;14.40;6.97;;;;;;;12.76;100.00;101232.14;1699515;83;21148;-42
2022/07/03 03:14:41;;;;;;;12.05;5.72;;;;;;;12.92;100.00;101232.30;1684257;83;21063;-43
2022/07/03 03:17:16;;;;;;;8.35;5.85;;;;;;;13.01;100.00;101226.09;1699667;83;20967;-41
2022/07/03 03:19:48;;;;;;;6.70;4.83;;;;;;;13.07;100.00;101226.45;1677168;84;21805;-41
2022/07/03 03:22:37;;;;;;;6.40;4.62;;;;;;;13.15;100.00;101228.92;1668913;85;21016;-41
2022/07/03 03:25:05;;;;;;;7.25;4.67;;;;;;;13.23;100.00;101234.38;1687878;84;21878;-41
2022/07/03 03:27:32;;;;;;;6.22;5.20;;;;;;;13.33;100.00;101231.19;1660361;85;20996;-41
2022/07/03 03:29:59;;;;;;;13.08;5.45;;;;;;;13.46;100.00;101237.05;1676060;85;20991;-41
2022/07/03 03:32:27;;;;;;;9.05;5.10;;;;;;;13.59;100.00;101232.94;1691497;83;21003;-41
2022/07/03 03:34:54;;;;;;;8.45;4.58;;;;;;;13.70;100.00;101236.19;1687597;83;20990;-43
2022/07/03 03:37:20;;;;;;;8.95;4.80;;;;;;;13.83;100.00;101234.20;1704784;83;21100;-41
2022/07/03 03:39:47;;;;;;;8.38;4.45;;;;;;;13.98;100.00;101233.04;1705060;83;21007;-41
2022/07/03 03:42:13;;;;;;;4.62;4.22;;;;;;;14.15;100.00;101230.11;1666965;85;21052;-41
2022/07/03 03:44:40;;;;;;;6.78;3.85;;;;;;;14.36;100.00;101226.18;1707784;83;21000;-42
2022/07/03 03:47:08;;;;;;;8.88;3.75;;;;;;;14.65;100.00;101228.56;1685380;83;21688;-42
2022/07/03 03:49:34;;;;;;;4.15;3.10;;;;;;;15.01;100.00;101225.58;1662863;84;21094;-42
2022/07/03 03:52:01;;;;;;;5.85;3.37;;;;;;;15.38;100.00;101225.50;1681660;84;21000;-42
2022/07/03 03:54:28;;;;;;;10.03;3.40;;;;;;;15.74;100.00;101234.14;1633663;84;20992;-42
2022/07/03 03:56:55;;;;;;;2.80;2.60;;;;;;;16.07;100.00;101230.19;1686578;84;21039;-42
2022/07/03 03:59:22;;;;;;;4.42;2.62;;;;;;;16.41;100.00;101229.64;1695125;84;21023;-42
2022/07/03 04:01:49;;;;;;;3.05;2.65;;;;;;;16.74;100.00;101230.34;1685078;84;21105;-42
2022/07/03 04:04:18;;;;;;;4.75;2.30;;;;;;;17.03;100.00;101229.87;1693781;84;20922;-43
2022/07/03 04:06:44;;;;;;;3.72;2.40;;;;;;;17.29;100.00;101239.04;1663803;85;21629;-42
2022/07/03 04:09:12;;;;;;;5.47;2.50;;;;;;;17.64;100.00;101243.52;1663540;85;20975;-43
2022/07/03 04:11:39;;;;;;;6.67;2.72;;;;;;;17.93;100.00;101243.74;1654397;85;21007;-42
2022/07/03 04:14:07;;;;;;;12.33;2.80;;;;;;;18.19;100.00;101245.04;1664833;85;21579;-43
2022/07/03 04:16:35;;;;;;;4.42;2.50;;;;;;;18.47;100.00;101240.04;1753193;80;21003;-43
2022/07/03 04:19:02;;;;;;;8.23;2.72;;;;;;;18.62;99.88;101244.69;1749577;80;20947;-42
2022/07/03 04:21:30;;;;;;;12.70;2.45;;;;;;;18.86;97.10;101241.99;1761669;80;21038;-42
2022/07/03 04:23:56;;;;;;;5.15;2.40;;;;;;;19.10;95.21;101241.92;1752797;80;21462;-43
2022/07/03 04:26:23;;;;;;;6.67;2.40;;;;;;;19.33;87.56;101236.16;1766620;80;21206;-43
2022/07/03 04:28:50;;;;;;;5.33;3.08;;;;;;;19.48;83.70;101239.42;1747076;80;21010;-43
2022/07/03 04:31:17;;;;;;;13.00;2.70;;;;;;;19.69;83.52;101236.77;1762073;80;20971;-43
2022/07/03 04:33:44;;;;;;;5.30;2.22;;;;;;;19.97;82.56;101232.09;1753215;80;21506;-43
2022/07/03 04:36:10;;;;;;;4.53;2.40;;;;;;;20.26;81.17;101239.92;1763366;80;21060;-43
2022/07/03 04:38:37;;;;;;;4.97;2.22;;;;;;;20.38;75.94;101232.78;1735971;82;21593;-43
2022/07/03 04:41:04;;;;;;;2.75;2.55;;;;;;;20.44;73.80;101238.19;1760140;80;20991;-43
2022/07/03 04:43:31;;;;;;;7.53;2.27;;;;;;;20.48;69.31;101237.59;1770463;79;21565;-43
2022/07/03 04:45:58;;;;;;;5.58;2.30;;;;;;;20.52;70.68;101244.40;1759664;80;20959;-43
2022/07/03 04:48:24;;;;;;;2.98;2.67;;;;;;;20.63;70.82;101242.57;1754783;80;20971;-42
2022/07/03 04:50:51;;;;;;;7.15;2.75;;;;;;;20.77;70.58;101251.10;1744605;80;22574;-43
2022/07/03 04:53:18;;;;;;;7.65;2.30;;;;;;;20.93;69.69;101240.25;1749170;80;20983;-43
2022/07/03 04:55:45;;;;;;;10.45;2.80;;;;;;;21.15;68.53;101244.44;1765973;80;20948;-43
2022/07/03 04:58:12;;;;;;;5.42;2.42;;;;;;;21.35;66.07;101242.09;1757536;80;20975;-43
2022/07/03 05:00:40;;;;;;;12.95;2.67;;;;;;;21.40;64.40;101245.82;1763032;80;20991;-43
2022/07/03 05:03:07;;;;;;;7.42;2.58;;;;;;;21.52;64.36;101241.22;1759940;80;21268;-43
2022/07/03 05:05:33;;;;;;;8.50;2.87;;;;;;;21.70;65.89;101241.22;1750567;80;21577;-43
2022/07/03 05:08:01;;;;;;;5.55;2.52;;;;;;;22.01;65.45;101247.47;1748556;80;20928;-43
2022/07/03 05:10:27;;;;;;;6.15;2.30;;;;;;;22.14;61.58;101241.55;1774159;80;20987;-43
2022/07/03 05:12:54;;;;;;;4.50;2.05;;;;;;;22.14;60.06;101236.27;1765380;80;20936;-43
2022/07/03 05:15:21;;;;;;;6.50;2.40;;;;;;;22.23;60.84;101237.94;1765718;80;21205;-43
2022/07/03 05:17:48;;;;;;;5.42;2.33;;;;;;;22.52;61.46;101237.25;1743774;80;20960;-43
2022/07/03 05:20:27;;;;;;;9.23;2.60;;;;;;;22.76;60.10;101232.83;1758373;80;20932;-43
2022/07/03 05:22:57;;;;;;;5.80;2.40;;;;;;;22.88;59.49;101229.94;1752013;80;20900;-43
2022/07/03 05:25:24;;;;;;;6.47;2.45;;;;;;;23.13;58.89;101229.36;1764823;80;20940;-43
2022/07/03 05:27:52;;;;;;;9.00;2.75;;;;;;;23.32;59.61;101225.62;1765104;80;21069;-43
2022/07/03 05:30:20;;;;;;;7.58;2.20;;;;;;;23.53;54.88;101226.14;1750974;80;22256;-43
2022/07/03 05:32:47;;;;;;;6.58;2.00;;;;;;;23.53;55.16;101220.85;1747838;80;21067;-43
2022/07/03 05:35:13;;;;;;;1.95;1.82;;;;;;;23.59;54.69;101228.39;1742814;80;21092;-43
2022/07/03 05:37:40;;;;;;;7.12;2.20;;;;;;;23.68;54.94;101228.30;1753376;80;20941;-43
2022/07/03 05:40:08;;;;;;;5.90;2.30;;;;;;;23.91;55.14;101229.98;1745835;80;20972;-43
2022/07/03 05:42:34;;;;;;;6.97;2.25;;;;;;;24.18;54.83;101228.72;1750945;80;20932;-43
2022/07/03 05:45:02;;;;;;;7.90;2.40;;;;;;;24.39;54.32;101225.19;1743088;80;21018;-43
2022/07/03 05:47:28;;;;;;;4.70;2.10;;;;;;;24.65;52.77;101225.27;1714481;80;21082;-43
2022/07/03 05:49:57;;;;;;;4.78;2.02;;;;;;;24.83;49.49;101218.39;1742317;80;20948;-43
2022/07/03 05:52:25;;;;;;;4.37;2.12;;;;;;;24.83;49.97;101215.74;1751750;80;21384;-43
2022/07/03 05:54:53;;;;;;;7.85;2.20;;;;;;;24.92;48.49;101211.17;1754162;80;20974;-43
2022/07/03 05:57:20;;;;;;;6.65;1.92;;;;;;;25.08;50.97;101216.73;1740882;80;20971;-43
2022/07/03 05:59:47;;;;;;;8.43;1.55;;;;;;;25.38;49.68;101209.80;1741386;80;20971;-43
2022/07/03 06:02:14;;;;;;;6.28;1.72;;;;;;;25.65;48.64;101209.35;1752570;80;21556;-43
2022/07/03 06:04:41;;;;;;;8.23;1.90;;;;;;;25.85;47.15;101208.38;1762298;80;21085;-43
2022/07/03 06:07:08;;;;;;;2.33;1.50;;;;;;;25.82;46.00;101208.98;1726903;80;21079;-43
2022/07/03 06:09:36;;;;;;;6.83;1.62;;;;;;;25.79;43.76;101207.04;1751501;80;21026;-43
2022/07/03 06:12:04;;;;;;;2.40;1.50;;;;;;;25.56;44.38;101215.28;1753792;80;21036;-43
2022/07/03 06:14:31;;;;;;;1.50;1.40;;;;;;;25.54;44.81;101210.94;1718047;80;20905;-44
2022/07/03 06:16:57;;;;;;;6.28;1.52;;;;;;;25.67;43.51;101210.09;1700711;83;21789;-44
2022/07/03 06:31:32;;;;;;;2.98;1.70;;;;;;;26.26;39.21;101203.25;1732479;80;22739;-42
2022/07/03 06:33:58;;;;;;;3.52;1.60;;;;;;;26.15;39.58;101193.89;1709869;82;21043;-43
2022/07/03 06:36:25;;;;;;;10.95;1.60;;;;;;;26.08;39.77;101191.66;1748443;81;21160;-44
2022/07/03 06:38:52;;;;;;;4.40;1.70;;;;;;;25.82;39.42;101196.22;1737302;81;21003;-43
2022/07/03 06:41:18;;;;;;;5.05;1.57;;;;;;;25.59;40.43;101197.37;1737274;81;20986;-43
2022/07/03 06:43:45;;;;;;;5.60;2.00;;;;;;;25.24;40.10;101197.98;1736632;81;21010;-43
2022/07/03 06:46:12;;;;;;;12.80;1.87;;;;;;;24.95;42.89;101192.89;1710049;81;21532;-43
2022/07/03 06:48:39;;;;;;;9.83;1.77;;;;;;;24.96;44.77;101187.97;1735348;81;21908;-43
2022/07/03 06:51:06;;;;;;;2.92;1.55;;;;;;;25.01;44.35;101192.50;1739798;81;20947;-43
2022/07/03 06:53:33;;;;;;;4.47;1.40;;;;;;;25.08;41.12;101188.92;1742327;81;20956;-43
2022/07/03 06:56:00;;;;;;;5.50;1.70;;;;;;;25.12;42.26;101189.08;1748097;81;20940;-43
2022/07/03 06:58:26;;;;;;;5.03;1.70;;;;;;;25.19;40.63;101183.75;1735784;81;21050;-44
2022/07/03 07:00:53;;;;;;;10.10;3.98;;;;;;;25.27;41.50;101180.58;1737860;81;21221;-43
2022/07/03 07:03:20;;;;;;;2.17;2.08;;;;;;;25.43;42.68;101190.09;1737524;82;21037;-42
2022/07/03 07:05:46;;;;;;;5.10;1.60;;;;;;;25.48;40.95;101186.20;1738124;81;21054;-43
2022/07/03 07:08:13;;;;;;;4.85;2.15;;;;;;;25.62;40.22;101189.20;1739285;81;20970;-45
2022/07/03 07:10:40;;;;;;;4.47;1.52;;;;;;;25.61;39.38;101186.64;1736219;81;21050;-44
2022/07/03 07:13:06;;;;;;;1.62;1.47;;;;;;;25.56;38.80;101184.80;1744425;81;21198;-44
2022/07/03 07:15:33;;;;;;;2.25;1.40;;;;;;;25.54;38.87;101184.44;1741513;81;20970;-44
2022/07/03 07:18:00;;;;;;;3.80;1.52;;;;;;;25.57;38.91;101182.52;1742720;81;21021;-43
2022/07/03 07:20:27;;;;;;;4.08;2.08;;;;;;;25.73;38.25;101177.83;1731693;81;21064;-43
2022/07/03 07:22:57;;;;;;;4.55;1.45;;;;;;;25.85;37.78;101180.55;1735441;81;21038;-43
2022/07/03 07:25:24;;;;;;;6.75;1.72;;;;;;;25.83;37.94;101170.07;1729842;82;21212;-43
2022/07/03 07:27:51;;;;;;;5.20;1.37;;;;;;;25.88;38.56;101171.04;1696715;82;20952;-43
2022/07/03 07:30:19;;;;;;;4.35;1.60;;;;;;;25.94;37.61;101171.45;1729195;81;20931;-43
2022/07/03 07:32:45;;;;;;;10.08;1.80;;;;;;;25.94;38.00;101174.10;1729714;81;21643;-43
2022/07/03 07:35:12;;;;;;;6.17;1.50;;;;;;;25.90;37.75;101176.61;1723768;81;21006;-44
2022/07/03 07:37:39;;;;;;;4.45;1.52;;;;;;;25.85;37.53;101180.55;1719699;82;21149;-43
2022/07/03 07:40:08;;;;;;;2.10;1.60;;;;;;;25.99;38.82;101169.80;1722619;81;20987;-44
2022/07/03 07:42:34;;;;;;;4.50;1.80;;;;;;;26.27;38.51;101167.80;1730435;81;21038;-44
2022/07/03 07:45:03;;;;;;;3.90;1.47;;;;;;;26.55;36.84;101171.05;1732956;81;20999;-43
2022/07/03 07:47:31;;;;;;;8.80;1.60;;;;;;;26.54;36.52;101181.30;1729313;82;20982;-44
2022/07/03 07:50:00;;;;;;;4.03;1.80;;;;;;;26.49;36.64;101178.97;1732640;82;21275;-43
2022/07/03 07:52:27;;;;;;;5.53;1.40;;;;;;;26.49;36.57;101175.48;1732866;81;21046;-43
2022/07/03 07:54:53;;;;;;;6.42;1.42;;;;;;;26.59;36.09;101168.52;1727069;82;20959;-43
2022/07/03 07:57:20;;;;;;;3.45;1.50;;;;;;;26.75;36.85;101170.84;1728259;81;21026;-44
2022/07/03 07:59:46;;;;;;;2.15;1.47;;;;;;;26.89;36.58;101165.02;1727781;81;21085;-44
2022/07/03 08:07:46;;;;;;;4.42;1.62;;;;;;;27.08;36.58;101163.96;1640533;87;21107;-44
2022/07/03 08:10:14;;;;;;;3.85;1.92;;;;;;;27.18;36.77;101156.13;1632786;87;21000;-43
2022/07/03 08:12:40;;;;;;;5.22;1.50;;;;;;;27.34;37.32;101159.74;1670969;82;21568;-43
2022/07/03 08:15:08;;;;;;;1.60;1.50;;;;;;;27.34;34.75;101157.55;1732642;82;21043;-44
2022/07/03 08:17:35;;;;;;;4.50;1.50;;;;;;;27.03;35.35;101161.28;1731684;81;21034;-44
2022/07/03 08:20:04;;;;;;;5.80;1.40;;;;;;;27.14;35.49;101153.31;1733652;82;20951;-44
2022/07/03 08:22:31;;;;;;;3.72;1.60;;;;;;;27.41;35.08;101148.15;1723343;82;21006;-44
2022/07/03 08:24:57;;;;;;;4.45;1.47;;;;;;;27.42;35.13;101147.65;1726796;82;21090;-43
2022/07/03 08:27:24;;;;;;;2.22;1.27;;;;;;;27.42;34.97;101145.86;1725678;82;21406;-43
2022/07/03 08:29:51;;;;;;;1.70;1.30;;;;;;;27.48;35.13;101142.70;1731268;82;21058;-44
2022/07/03 08:32:17;;;;;;;6.72;1.92;;;;;;;27.32;34.97;101141.75;1726851;82;21058;-42
2022/07/03 08:34:44;;;;;;;5.78;1.70;;;;;;;27.25;35.87;101146.69;1735991;82;21543;-43
2022/07/03 08:37:11;;;;;;;2.95;1.50;;;;;;;27.43;35.39;101147.55;1733217;81;21054;-43
2022/07/03 08:39:38;;;;;;;3.60;1.47;;;;;;;27.64;33.99;101146.80;1706941;82;21366;-44
2022/07/03 08:42:05;;;;;;;5.95;1.70;;;;;;;27.84;34.30;101149.20;1715289;82;20986;-44
2022/07/03 08:44:34;;;;;;;2.30;1.32;;;;;;;27.95;34.23;101145.66;1733562;82;21015;-43
2022/07/03 08:47:01;;;;;;;3.02;1.45;;;;;;;27.97;33.30;101143.72;1706249;82;20944;-44
2022/07/03 08:49:28;;;;;;;2.85;1.42;;;;;;;28.10;32.20;101143.55;1736382;82;20961;-44
2022/07/03 08:51:54;;;;;;;4.20;1.42;;;;;;;28.06;31.39;101141.63;1733267;82;21199;-42
2022/07/03 08:54:21;;;;;;;1.85;1.20;;;;;;;27.94;32.38;101139.48;1708154;82;21009;-42
2022/07/03 08:56:48;;;;;;;2.75;1.25;;;;;;;27.80;34.05;101139.28;1734969;82;20915;-43
2022/07/03 08:59:15;;;;;;;2.12;1.40;;;;;;;27.53;34.34;101144.53;1724029;82;21022;-43
2022/07/03 09:01:43;;;;;;;3.12;1.40;;;;;;;27.58;34.41;101138.00;1719065;82;21626;-42
2022/07/03 09:04:13;;;;;;;3.50;1.85;;;;;;;27.66;33.72;101137.74;1725909;82;21172;-42
2022/07/03 09:06:41;;;;;;;1.60;1.47;;;;;;;27.88;32.58;101128.03;1714483;82;20995;-43
2022/07/03 09:09:09;;;;;;;1.30;1.20;;;;;;;28.21;33.85;101126.73;1726516;81;21030;-43
2022/07/03 09:11:38;;;;;;;1.52;1.42;;;;;;;28.31;33.84;101130.30;1728452;81;21026;-44
2022/07/03 09:14:06;;;;;;;2.37;1.47;;;;;;;28.44;31.79;101124.80;1727094;82;20944;-43
2022/07/03 09:16:35;;;;;;;4.08;1.87;;;;;;;28.56;30.94;101128.23;1728559;81;21061;-43
2022/07/03 09:19:05;;;;;;;4.20;1.50;;;;;;;28.66;33.56;101128.30;1730186;81;20956;-43
2022/07/03 09:21:38;;;;;;;3.10;1.30;;;;;;;28.75;32.06;101128.84;1730990;82;20916;-44
2022/07/03 09:24:07;;;;;;;1.62;1.32;;;;;;;28.71;32.01;101122.59;1730577;82;20959;-45
2022/07/03 09:26:34;;;;;;;1.75;1.10;;;;;;;28.75;31.43;101122.69;1677795;82;21002;-44
2022/07/03 09:29:01;;;;;;;4.12;1.52;;;;;;;29.03;32.50;101116.33;1726733;82;21086;-44
2022/07/03 09:31:30;;;;;;;10.18;1.98;;;;;;;29.09;31.02;101126.45;1720900;82;20940;-44
2022/07/03 09:34:01;;;;;;;1.85;1.32;;;;;;;29.14;31.75;101125.55;1721461;83;20998;-45
2022/07/03 09:36:46;;;;;;;2.22;1.30;;;;;;;29.21;29.60;101124.06;1719449;83;20901;-42
2022/07/03 09:39:22;;;;;;;5.70;1.47;;;;;;;29.34;30.50;101117.16;1703234;84;20999;-44
2022/07/03 09:42:03;;;;;;;1.62;1.47;;;;;;;29.60;30.59;101111.83;1717100;83;21258;-45
2022/07/03 09:44:40;;;;;;;3.20;1.40;;;;;;;29.45;29.53;101121.57;1716137;83;21001;-43
2022/07/03 09:47:24;;;;;;;1.75;1.37;;;;;;;29.12;29.04;101111.52;1725916;83;20927;-44
2022/07/03 09:50:02;;;;;;;1.75;1.27;;;;;;;29.00;29.42;101111.28;1723421;83;22290;-44
2022/07/03 09:52:46;;;;;;;1.62;1.50;;;;;;;29.12;30.07;101112.85;1717101;83;21559;-43
2022/07/03 09:55:19;;;;;;;5.65;1.42;;;;;;;29.31;31.57;101111.24;1725981;82;21227;-43
2022/07/03 09:57:54;;;;;;;2.12;1.50;;;;;;;29.37;32.33;101105.36;1720294;83;21112;-43
2022/07/03 10:00:28;;;;;;;4.00;1.52;;;;;;;29.58;30.32;101099.13;1733513;82;21022;-43
2022/07/03 10:03:00;;;;;;;3.95;1.60;;;;;;;29.67;30.50;101095.63;1720464;83;21572;-43
2022/07/03 10:05:36;;;;;;;2.80;1.15;;;;;;;29.60;28.75;101093.17;1725960;82;21112;-43
2022/07/03 10:08:15;;;;;;;6.47;1.57;;;;;;;29.47;30.10;101093.42;1719889;83;21222;-43
2022/07/03 10:10:44;;;;;;;4.20;2.00;;;;;;;29.59;30.34;101084.81;1717277;83;21528;-43
2022/07/03 10:13:11;;;;;;;3.45;1.62;;;;;;;29.62;28.85;101073.39;1720252;83;21509;-43
2022/07/03 10:15:39;;;;;;;1.65;1.52;;;;;;;29.44;29.72;101082.56;1717842;83;20983;-43
2022/07/03 10:18:13;;;;;;;1.90;1.62;;;;;;;29.01;30.74;101080.48;1719913;82;21563;-43
2022/07/03 10:20:53;;;;;;;4.03;1.62;;;;;;;28.89;29.02;101081.57;1707637;82;21857;-43
2022/07/03 10:23:28;;;;;;;3.25;2.95;;;;;;;28.95;31.41;101077.89;1701294;82;21538;-43
2022/07/03 10:25:58;;;;;;;4.55;1.70;;;;;;;29.23;28.74;101090.12;1698604;84;21572;-43
2022/07/03 10:28:25;;;;;;;12.50;1.22;;;;;;;29.14;30.13;101075.42;1724469;82;20959;-43
2022/07/03 10:30:52;;;;;;;3.87;1.52;;;;;;;29.46;31.62;101073.08;1725431;81;21038;-43
2022/07/03 10:33:20;;;;;;;3.58;1.42;;;;;;;29.92;28.62;101062.72;1720311;83;21250;-43
2022/07/03 10:35:54;;;;;;;3.05;1.70;;;;;;;30.23;29.83;101066.10;1731039;82;20962;-43
2022/07/03 10:38:35;;;;;;;11.65;1.92;;;;;;;30.56;29.15;101066.23;1727076;82;20994;-44
2022/07/03 10:46:47;;;;;;;1.45;1.32;;;;;;;30.42;28.06;101062.20;1717452;83;21260;-43
2022/07/03 10:49:15;;;;;;;5.70;1.47;;;;;;;30.55;27.24;101061.41;1713685;83;20995;-43
2022/07/03 10:51:57;;;;;;;1.70;1.60;;;;;;;30.79;26.89;101050.23;1720577;83;21516;-43
2022/07/03 10:54:27;;;;;;;1.00;1.00;;;;;;;30.98;26.96;101048.98;1729445;82;20935;-44
2022/07/03 10:57:04;;;;;;;10.13;2.15;;;;;;;31.05;27.74;101054.06;1725100;83;21019;-43
2022/07/03 10:59:43;;;;;;;4.37;1.50;;;;;;;31.16;27.43;101054.36;1725730;83;21110;-44
2022/07/03 11:02:32;;;;;;;1.95;1.52;;;;;;;31.11;28.68;101050.78;1720281;83;20976;-44
2022/07/03 11:05:08;;;;;;;1.47;1.00;;;;;;;30.96;25.99;101051.30;1732900;82;21631;-44
2022/07/03 11:07:56;;;;;;;2.75;1.20;;;;;;;30.71;25.95;101041.30;1717957;83;21014;-44
2022/07/03 11:10:29;;;;;;;1.30;1.20;;;;;;;30.75;26.79;101038.16;1723602;82;21579;-44
2022/07/03 11:13:04;;;;;;;2.85;1.37;;;;;;;31.14;27.61;101040.30;1713074;83;21261;-44
2022/07/03 11:15:37;;;;;;;5.60;1.80;;;;;;;31.17;28.49;101050.19;1714800;83;21016;-44
2022/07/03 11:18:27;;;;;;;3.77;1.67;;;;;;;30.93;27.55;101050.23;1707693;83;21028;-44
2022/07/03 11:21:03;;;;;;;2.30;2.10;;;;;;;30.96;26.62;101043.28;1694680;82;22078;-44
2022/07/03 11:23:55;;;;;;;4.47;1.40;;;;;;;31.16;26.43;101036.98;1718952;83;21429;-44
2022/07/03 11:26:22;;;;;;;2.00;1.30;;;;;;;31.22;27.28;101043.95;1708328;83;22181;-44
2022/07/03 11:28:52;;;;;;;3.20;1.72;;;;;;;31.04;27.02;101035.84;1715998;83;21045;-44
2022/07/03 11:31:22;;;;;;;5.33;1.30;;;;;;;31.11;27.42;101040.95;1714170;81;21062;-44
2022/07/03 11:33:57;;;;;;;13.55;2.20;;;;;;;30.84;26.56;101044.45;1755761;81;20971;-44
2022/07/03 11:36:29;;;;;;;3.67;1.05;;;;;;;30.69;26.10;101034.75;1753977;80;20944;-42
2022/07/03 11:39:02;;;;;;;2.30;1.30;;;;;;;30.90;25.65;101033.67;1736955;81;21222;-44
2022/07/03 11:41:42;;;;;;;8.05;1.60;;;;;;;30.84;27.87;101036.44;1747041;81;21516;-44
2022/07/03 11:44:10;;;;;;;6.67;1.50;;;;;;;30.72;26.89;101036.30;1727423;81;21636;-44
2022/07/03 11:46:39;;;;;;;1.80;1.70;;;;;;;30.70;26.43;101034.27;1747403;82;20973;-44
2022/07/03 11:49:13;;;;;;;7.78;1.47;;;;;;;30.73;27.54;101033.97;1711343;82;21539;-44
2022/07/03 11:51:45;;;;;;;8.80;1.30;;;;;;;31.02;25.47;101027.64;1711767;83;21462;-44
2022/07/03 11:54:12;;;;;;;2.25;0.90;;;;;;;31.07;24.34;101020.87;1715736;82;20965;-44
2022/07/03 11:56:39;;;;;;;4.08;1.17;;;;;;;31.07;26.69;101025.36;1747290;82;21059;-44
2022/07/03 11:59:06;;;;;;;4.80;1.40;;;;;;;31.14;27.99;101028.28;1742300;82;21462;-44
2022/07/03 12:01:36;;;;;;;4.15;1.52;;;;;;;31.11;30.63;101029.41;1741553;82;21112;-44